AirNav   Duncan Aviation - Near you to keep you flying
 
 1382 users online  

14MN Riverwood Healthcare Center Heliport
Aitkin, Minnesota, USA

GOING TO AITKIN?


FAA INFORMATION EFFECTIVE 30 DECEMBER 2021

Location

FAA Identifier: 14MN
Lat/Long: 46-31-46.4700N 093-41-59.3400W
46-31.774500N 093-41.989000W
46.5295750,-93.6998167
(estimated)
Elevation: 1224 ft. / 373 m (estimated)
Time zone: UTC -6 (UTC -5 during Daylight Saving Time)
Zip code: 56431

Heliport Operations

Heliport use: Private use. Permission required prior to landing
Activation date: 02/2003
Control tower: no
ARTCC: MINNEAPOLIS CENTER
FSS: PRINCETON FLIGHT SERVICE STATION
Attendance: UNATNDD
Wind indicator: yes
Segmented circle: no

Heliport Communications

WX AWOS-3 at AIT (1.5 nm NE): 118.675 (218-927-2101)
WX AWOS-3 at HZX (17 nm E): 119.575 (218-768-2593)
WX ASOS at BRD (19 nm SW): 126.775 (218-828-3314)

Nearby radio navigation aids

VOR radial/distance  VOR name  Freq  Var
GPZr187/39.0GRAND RAPIDS VOR/DME111.4006E

 
NDB name  Hdg/Dist  Freq  Var  ID
LAREW069/14.025103EBR -... .-.
RIPLEY042/38.040403EXCR -..- -.-. .-.

Heliport Services

Runway Information

Helipad H1

Dimensions: 52 x 52 ft. / 16 x 16 m
Surface: concrete
Runway edge lights: low intensity
LIGHTS ACTIVATED ON A TIMER.
Operational restrictions: CIRCULAR HELIPAD.
Latitude: 46-31.774500N
Longitude: 093-41.989000W
Elevation: 1224.0 ft.
Traffic pattern: leftleft

Heliport Ownership and Management from official FAA records

Ownership: Privately-owned
Owner: AITKIN COMMUNITY HOSPITAL, INC.
200 BUNKER HILL DRIVE
AITKIN, MN 56431
Phone 218-927-2121
DBA RIVERWOOD HEALTHCARE CENTER
Manager: TODD SANDBERG, CEO
RIVERWOOD HEALTH CENTER, 200 BUNKER HILL DRIVE
AITKIN, MN 56431
Phone 218-927-2121
ADDNL CTC - JEFF BARE 218-927-5565; JBARE@RWHEALTH.ORG

Additional Remarks

FOR CD CTC MINNEAPOLIS ARTCC AT 651-463-5588.

Instrument Procedures

There are no published instrument procedures at 14MN.

Some nearby airports with instrument procedures:

KAIT - Aitkin Municipal Airport - Steve Kurtz Field (1 nm NE)
KHZX - Isedor Iverson Airport (17 nm E)
KBRD - Brainerd Lakes Regional Airport (19 nm SW)
KPWC - Pine River Regional Airport (30 nm NW)
KXVG - Longville Municipal Airport (35 nm NW)
 
Loc | Ops | Rwys | IFR | FBO | Links
Com | Nav | Svcs | Stats | Notes
Area around 14MN (Riverwood Healthcare Center Heliport)
 
Road maps at: MapQuest Bing Google
 
Aerial photo
No photo
 
Sectional chart

 
Airport distance calculator
Flying to Riverwood Healthcare Center Heliport? Find the distance to fly.

From to 14MN

Sunrise and sunset
Times for 19-Jan-2022
 Local
(UTC-6)
 Zulu
(UTC)
Morning civil twilight07:1913:19
Sunrise07:5313:53
Sunset16:5822:58
Evening civil twilight17:3223:32

Current date and time
Zulu (UTC)  19-Jan-2022 17:16:59
Local (UTC-6)  19-Jan-2022 11:16:59
 
METAR
KAIT 191655Z AUTO 31010G14KT 10SM CLR M16/M22 A3031 RMK AO2
KHZX 
17nm E 
191655Z AUTO 32010G17KT 10SM CLR M16/M21 A3029 RMK AO2
KBRD 
20nm SW 
191653Z AUTO 32015G21KT 10SM CLR M17/M23 A3034 RMK AO2 SLP310 T11671233 TSNO
TAF
KBRD 
20nm SW 
191334Z 1914/2012 31014G20KT P6SM SCT015 FM200000 32011KT P6SM FEW015 FM200800 32006KT P6SM SKC
NOTAMs
Click for the latest NOTAMs
NOTAMs are issued by the DoD/FAA and will open in a separate window not controlled by AirNav.

 

 
 

Would you like to see your business listed on this page?

 If your business provides an interesting product or service to pilots, flight crews, aircraft, or users of the Riverwood Healthcare Center Heliport, you should consider listing it here.  To start the listing process, click on the button below
 
Add a business
 

Other Pages about Riverwood Healthcare Center Heliport

Update a link
 
Copyright © AirNav, LLC. All rights reserved. Privacy Policy  Contact